sensor_id;sensor_type;location;lat;lon;timestamp;pressure;altitude;pressure_sealevel;temperature;humidity
3178;BME280;38141;42.666;23.344;2023-03-03T00:02:27;94698.63;;;4.31;100.00
3178;BME280;38141;42.666;23.344;2023-03-03T00:04:54;94685.03;;;4.24;100.00
3178;BME280;38141;42.666;23.344;2023-03-03T00:07:21;94718.09;;;4.59;100.00
3178;BME280;38141;42.666;23.344;2023-03-03T00:09:48;94730.84;;;4.62;100.00
3178;BME280;38141;42.666;23.344;2023-03-03T00:12:20;94631.56;;;4.12;100.00
3178;BME280;38141;42.666;23.344;2023-03-03T00:14:50;94709.59;;;4.26;100.00
3178;BME280;38141;42.666;23.344;2023-03-03T00:17:21;94703.91;;;4.43;100.00
3178;BME280;38141;42.666;23.344;2023-03-03T00:19:48;94711.50;;;4.41;100.00
3178;BME280;38141;42.666;23.344;2023-03-03T00:22:25;94711.09;;;4.39;100.00
3178;BME280;38141;42.666;23.344;2023-03-03T00:24:53;94695.72;;;4.36;100.00
3178;BME280;38141;42.666;23.344;2023-03-03T00:27:26;94711.53;;;4.57;100.00
3178;BME280;38141;42.666;23.344;2023-03-03T00:29:57;94707.13;;;4.48;100.00
3178;BME280;38141;42.666;23.344;2023-03-03T00:32:27;94714.06;;;4.50;100.00
3178;BME280;38141;42.666;23.344;2023-03-03T00:35:01;94706.88;;;4.54;100.00
3178;BME280;38141;42.666;23.344;2023-03-03T00:37:42;94693.13;;;4.55;100.00
3178;BME280;38141;42.666;23.344;2023-03-03T00:40:18;94706.78;;;4.50;100.00
3178;BME280;38141;42.666;23.344;2023-03-03T00:42:48;94680.94;;;4.42;100.00
3178;BME280;38141;42.666;23.344;2023-03-03T00:45:31;94679.44;;;4.29;100.00
3178;BME280;38141;42.666;23.344;2023-03-03T00:48:15;94684.47;;;4.46;100.00
3178;BME280;38141;42.666;23.344;2023-03-03T00:50:44;94687.94;;;4.46;100.00
3178;BME280;38141;42.666;23.344;2023-03-03T00:53:13;94679.66;;;4.52;100.00
3178;BME280;38141;42.666;23.344;2023-03-03T00:55:41;94659.09;;;4.40;100.00
3178;BME280;38141;42.666;23.344;2023-03-03T00:58:08;94671.78;;;4.43;100.00
3178;BME280;38141;42.666;23.344;2023-03-03T01:00:38;94661.94;;;4.47;100.00
3178;BME280;38141;42.666;23.344;2023-03-03T01:03:07;94638.84;;;4.27;100.00
3178;BME280;38141;42.666;23.344;2023-03-03T01:05:35;94657.03;;;4.49;100.00
3178;BME280;38141;42.666;23.344;2023-03-03T01:08:02;94652.69;;;4.60;100.00
3178;BME280;38141;42.666;23.344;2023-03-03T01:10:31;94648.13;;;4.61;100.00
3178;BME280;38141;42.666;23.344;2023-03-03T01:12:59;94657.28;;;4.60;100.00
3178;BME280;38141;42.666;23.344;2023-03-03T01:15:27;94638.53;;;4.44;100.00
3178;BME280;38141;42.666;23.344;2023-03-03T01:17:55;94623.53;;;4.27;100.00
3178;BME280;38141;42.666;23.344;2023-03-03T01:20:22;94657.28;;;4.44;100.00
3178;BME280;38141;42.666;23.344;2023-03-03T01:22:49;94655.19;;;4.37;100.00
3178;BME280;38141;42.666;23.344;2023-03-03T01:25:16;94656.03;;;4.41;100.00
3178;BME280;38141;42.666;23.344;2023-03-03T01:27:42;94613.16;;;4.10;100.00
3178;BME280;38141;42.666;23.344;2023-03-03T01:30:10;94625.28;;;4.20;100.00
3178;BME280;38141;42.666;23.344;2023-03-03T01:32:37;94646.38;;;4.37;100.00
3178;BME280;38141;42.666;23.344;2023-03-03T01:35:06;94643.06;;;4.28;100.00
3178;BME280;38141;42.666;23.344;2023-03-03T01:37:33;94650.19;;;4.36;100.00
3178;BME280;38141;42.666;23.344;2023-03-03T01:40:00;94633.06;;;4.25;100.00
3178;BME280;38141;42.666;23.344;2023-03-03T01:42:27;94648.19;;;4.33;100.00
3178;BME280;38141;42.666;23.344;2023-03-03T01:45:16;94649.56;;;4.27;100.00
3178;BME280;38141;42.666;23.344;2023-03-03T01:47:47;94610.94;;;4.12;100.00
3178;BME280;38141;42.666;23.344;2023-03-03T01:50:27;94618.03;;;4.20;100.00
3178;BME280;38141;42.666;23.344;2023-03-03T01:52:55;94648.88;;;4.45;100.00
3178;BME280;38141;42.666;23.344;2023-03-03T01:55:28;94645.50;;;4.33;100.00
3178;BME280;38141;42.666;23.344;2023-03-03T01:57:59;94647.84;;;4.50;100.00
3178;BME280;38141;42.666;23.344;2023-03-03T02:00:28;94610.84;;;4.24;100.00
3178;BME280;38141;42.666;23.344;2023-03-03T02:02:55;94645.16;;;4.50;100.00
3178;BME280;38141;42.666;23.344;2023-03-03T02:05:24;94647.69;;;4.43;100.00
3178;BME280;38141;42.666;23.344;2023-03-03T02:07:51;94635.03;;;4.28;100.00
3178;BME280;38141;42.666;23.344;2023-03-03T02:10:21;94615.69;;;4.19;100.00
3178;BME280;38141;42.666;23.344;2023-03-03T02:12:49;94647.59;;;4.55;100.00
3178;BME280;38141;42.666;23.344;2023-03-03T02:15:19;94635.50;;;4.61;100.00
3178;BME280;38141;42.666;23.344;2023-03-03T02:17:48;94635.44;;;4.58;100.00
3178;BME280;38141;42.666;23.344;2023-03-03T02:20:24;94644.59;;;4.57;100.00
3178;BME280;38141;42.666;23.344;2023-03-03T02:22:59;94642.75;;;4.61;100.00
3178;BME280;38141;42.666;23.344;2023-03-03T02:25:35;94640.34;;;4.56;100.00
3178;BME280;38141;42.666;23.344;2023-03-03T02:28:09;94641.41;;;4.67;100.00
3178;BME280;38141;42.666;23.344;2023-03-03T02:30:37;94640.78;;;4.73;100.00
3178;BME280;38141;42.666;23.344;2023-03-03T02:33:05;94648.75;;;4.85;100.00
3178;BME280;38141;42.666;23.344;2023-03-03T02:35:34;94636.63;;;4.60;100.00
3178;BME280;38141;42.666;23.344;2023-03-03T02:38:17;94640.78;;;4.58;100.00
3178;BME280;38141;42.666;23.344;2023-03-03T02:40:54;94645.34;;;4.73;100.00
3178;BME280;38141;42.666;23.344;2023-03-03T02:43:27;94626.50;;;4.69;100.00
3178;BME280;38141;42.666;23.344;2023-03-03T02:45:55;94640.19;;;4.80;100.00
3178;BME280;38141;42.666;23.344;2023-03-03T02:48:22;94644.91;;;4.55;100.00
3178;BME280;38141;42.666;23.344;2023-03-03T02:50:49;94644.84;;;4.52;100.00
3178;BME280;38141;42.666;23.344;2023-03-03T02:53:16;94634.81;;;4.48;100.00
3178;BME280;38141;42.666;23.344;2023-03-03T02:55:42;94641.19;;;4.60;100.00
3178;BME280;38141;42.666;23.344;2023-03-03T02:58:09;94639.38;;;4.64;100.00
3178;BME280;38141;42.666;23.344;2023-03-03T03:00:37;94625.47;;;4.42;100.00
3178;BME280;38141;42.666;23.344;2023-03-03T03:03:04;94633.16;;;4.60;100.00
3178;BME280;38141;42.666;23.344;2023-03-03T03:05:31;94632.91;;;4.49;100.00
3178;BME280;38141;42.666;23.344;2023-03-03T03:07:57;94624.97;;;4.53;100.00
3178;BME280;38141;42.666;23.344;2023-03-03T03:10:24;94606.91;;;4.50;100.00
3178;BME280;38141;42.666;23.344;2023-03-03T03:12:51;94619.78;;;4.60;100.00
3178;BME280;38141;42.666;23.344;2023-03-03T03:15:18;94624.19;;;4.68;100.00
3178;BME280;38141;42.666;23.344;2023-03-03T03:17:46;94626.34;;;4.46;100.00
3178;BME280;38141;42.666;23.344;2023-03-03T03:20:13;94629.72;;;4.59;100.00
3178;BME280;38141;42.666;23.344;2023-03-03T03:22:39;94632.56;;;4.66;100.00
3178;BME280;38141;42.666;23.344;2023-03-03T03:25:07;94614.09;;;4.61;100.00
3178;BME280;38141;42.666;23.344;2023-03-03T03:27:34;94628.09;;;4.86;100.00
3178;BME280;38141;42.666;23.344;2023-03-03T03:30:01;94624.44;;;4.78;100.00
3178;BME280;38141;42.666;23.344;2023-03-03T03:32:28;94627.75;;;4.72;100.00
3178;BME280;38141;42.666;23.344;2023-03-03T03:34:56;94630.16;;;4.77;100.00
3178;BME280;38141;42.666;23.344;2023-03-03T03:37:23;94616.47;;;4.82;100.00
3178;BME280;38141;42.666;23.344;2023-03-03T03:39:49;94622.53;;;4.79;100.00
3178;BME280;38141;42.666;23.344;2023-03-03T03:42:16;94621.09;;;4.81;100.00
3178;BME280;38141;42.666;23.344;2023-03-03T03:44:43;94619.84;;;4.79;100.00
3178;BME280;38141;42.666;23.344;2023-03-03T03:47:10;94616.31;;;4.75;100.00
3178;BME280;38141;42.666;23.344;2023-03-03T03:49:36;94591.44;;;4.59;100.00
3178;BME280;38141;42.666;23.344;2023-03-03T03:52:05;94611.31;;;4.42;100.00
3178;BME280;38141;42.666;23.344;2023-03-03T03:54:31;94608.44;;;4.51;100.00
3178;BME280;38141;42.666;23.344;2023-03-03T03:56:58;94609.84;;;4.76;100.00
3178;BME280;38141;42.666;23.344;2023-03-03T03:59:25;94603.00;;;4.78;100.00
3178;BME280;38141;42.666;23.344;2023-03-03T04:01:52;94601.44;;;4.77;100.00
3178;BME280;38141;42.666;23.344;2023-03-03T04:04:18;94589.44;;;4.56;100.00
3178;BME280;38141;42.666;23.344;2023-03-03T04:06:45;94608.09;;;4.83;100.00
3178;BME280;38141;42.666;23.344;2023-03-03T04:09:13;94605.69;;;4.78;100.00
3178;BME280;38141;42.666;23.344;2023-03-03T04:11:40;94582.53;;;4.39;100.00
3178;BME280;38141;42.666;23.344;2023-03-03T04:14:07;94594.72;;;4.52;100.00
3178;BME280;38141;42.666;23.344;2023-03-03T04:16:34;94596.09;;;4.62;100.00
3178;BME280;38141;42.666;23.344;2023-03-03T04:19:01;94601.19;;;4.51;100.00
3178;BME280;38141;42.666;23.344;2023-03-03T04:21:27;94594.28;;;4.66;100.00
3178;BME280;38141;42.666;23.344;2023-03-03T04:23:54;94597.66;;;4.63;100.00
3178;BME280;38141;42.666;23.344;2023-03-03T04:26:22;94607.94;;;4.61;100.00
3178;BME280;38141;42.666;23.344;2023-03-03T04:28:49;94592.72;;;4.65;100.00
3178;BME280;38141;42.666;23.344;2023-03-03T04:31:16;94582.53;;;4.70;100.00
3178;BME280;38141;42.666;23.344;2023-03-03T04:33:44;94604.72;;;4.86;100.00
3178;BME280;38141;42.666;23.344;2023-03-03T04:36:11;94593.13;;;4.82;100.00
3178;BME280;38141;42.666;23.344;2023-03-03T04:38:38;94601.09;;;4.79;100.00
3178;BME280;38141;42.666;23.344;2023-03-03T04:41:04;94604.81;;;4.90;100.00
3178;BME280;38141;42.666;23.344;2023-03-03T04:43:33;94603.72;;;4.75;100.00
3178;BME280;38141;42.666;23.344;2023-03-03T04:45:59;94581.78;;;4.54;100.00
3178;BME280;38141;42.666;23.344;2023-03-03T04:48:26;94580.91;;;4.66;100.00
3178;BME280;38141;42.666;23.344;2023-03-03T04:50:53;94596.69;;;4.55;100.00
3178;BME280;38141;42.666;23.344;2023-03-03T04:53:20;94580.03;;;4.62;100.00
3178;BME280;38141;42.666;23.344;2023-03-03T04:55:49;94590.13;;;4.84;100.00
3178;BME280;38141;42.666;23.344;2023-03-03T04:58:16;94602.28;;;4.97;100.00
3178;BME280;38141;42.666;23.344;2023-03-03T05:00:45;94602.22;;;4.93;100.00
3178;BME280;38141;42.666;23.344;2023-03-03T05:03:12;94607.41;;;4.86;100.00
3178;BME280;38141;42.666;23.344;2023-03-03T05:05:39;94592.16;;;5.06;100.00
3178;BME280;38141;42.666;23.344;2023-03-03T05:08:06;94604.56;;;4.95;100.00
3178;BME280;38141;42.666;23.344;2023-03-03T05:10:33;94607.31;;;4.83;100.00
3178;BME280;38141;42.666;23.344;2023-03-03T05:12:59;94580.44;;;4.79;100.00
3178;BME280;38141;42.666;23.344;2023-03-03T05:15:26;94588.53;;;4.99;100.00
3178;BME280;38141;42.666;23.344;2023-03-03T05:17:55;94596.06;;;4.93;100.00
3178;BME280;38141;42.666;23.344;2023-03-03T05:20:22;94606.16;;;5.15;100.00
3178;BME280;38141;42.666;23.344;2023-03-03T05:22:48;94614.56;;;4.98;100.00
3178;BME280;38141;42.666;23.344;2023-03-03T05:25:15;94611.78;;;5.10;100.00
3178;BME280;38141;42.666;23.344;2023-03-03T05:27:42;94552.31;;;4.54;100.00
3178;BME280;38141;42.666;23.344;2023-03-03T05:30:10;94597.56;;;4.75;100.00
3178;BME280;38141;42.666;23.344;2023-03-03T05:32:37;94615.28;;;4.64;100.00
3178;BME280;38141;42.666;23.344;2023-03-03T05:35:06;94620.97;;;4.93;100.00
3178;BME280;38141;42.666;23.344;2023-03-03T05:37:33;94610.00;;;4.83;100.00
3178;BME280;38141;42.666;23.344;2023-03-03T05:40:00;94544.94;;;4.51;100.00
3178;BME280;38141;42.666;23.344;2023-03-03T05:42:26;94622.81;;;4.89;100.00
3178;BME280;38141;42.666;23.344;2023-03-03T05:44:53;94602.81;;;4.87;100.00
3178;BME280;38141;42.666;23.344;2023-03-03T05:47:20;94618.91;;;4.87;100.00
3178;BME280;38141;42.666;23.344;2023-03-03T05:49:47;94558.28;;;4.47;100.00
3178;BME280;38141;42.666;23.344;2023-03-03T05:52:15;94627.44;;;4.92;100.00
3178;BME280;38141;42.666;23.344;2023-03-03T05:54:42;94632.69;;;5.05;100.00
3178;BME280;38141;42.666;23.344;2023-03-03T05:57:09;94613.19;;;4.88;100.00
3178;BME280;38141;42.666;23.344;2023-03-03T05:59:36;94639.56;;;4.71;100.00
3178;BME280;38141;42.666;23.344;2023-03-03T06:02:03;94620.13;;;4.89;100.00
3178;BME280;38141;42.666;23.344;2023-03-03T06:04:29;94619.94;;;4.82;100.00
3178;BME280;38141;42.666;23.344;2023-03-03T06:06:56;94604.41;;;4.72;100.00
3178;BME280;38141;42.666;23.344;2023-03-03T06:09:24;94605.41;;;4.83;100.00
3178;BME280;38141;42.666;23.344;2023-03-03T06:11:51;94621.38;;;4.96;100.00
3178;BME280;38141;42.666;23.344;2023-03-03T06:14:18;94590.72;;;4.77;100.00
3178;BME280;38141;42.666;23.344;2023-03-03T06:16:46;94615.63;;;4.62;100.00
3178;BME280;38141;42.666;23.344;2023-03-03T06:19:13;94635.00;;;4.71;100.00
3178;BME280;38141;42.666;23.344;2023-03-03T06:21:40;94612.88;;;4.74;100.00
3178;BME280;38141;42.666;23.344;2023-03-03T06:24:07;94639.47;;;4.83;100.00
3178;BME280;38141;42.666;23.344;2023-03-03T06:26:36;94614.25;;;4.84;100.00
3178;BME280;38141;42.666;23.344;2023-03-03T06:29:03;94651.41;;;5.01;100.00
3178;BME280;38141;42.666;23.344;2023-03-03T06:31:29;94618.38;;;4.97;100.00
3178;BME280;38141;42.666;23.344;2023-03-03T06:33:56;94620.91;;;4.90;100.00
3178;BME280;38141;42.666;23.344;2023-03-03T06:36:24;94628.16;;;4.89;100.00
3178;BME280;38141;42.666;23.344;2023-03-03T06:38:51;94636.59;;;5.07;100.00
3178;BME280;38141;42.666;23.344;2023-03-03T06:41:18;94595.03;;;4.98;100.00
3178;BME280;38141;42.666;23.344;2023-03-03T06:43:46;94636.63;;;5.42;100.00
3178;BME280;38141;42.666;23.344;2023-03-03T06:46:13;94636.56;;;5.58;100.00
3178;BME280;38141;42.666;23.344;2023-03-03T06:48:41;94585.13;;;5.17;100.00
3178;BME280;38141;42.666;23.344;2023-03-03T06:51:19;94619.50;;;5.66;100.00
3178;BME280;38141;42.666;23.344;2023-03-03T06:53:48;94642.66;;;5.74;100.00
3178;BME280;38141;42.666;23.344;2023-03-03T06:56:16;94640.97;;;5.66;100.00
3178;BME280;38141;42.666;23.344;2023-03-03T06:58:43;94650.00;;;5.77;100.00
3178;BME280;38141;42.666;23.344;2023-03-03T07:01:15;94644.78;;;5.84;100.00
3178;BME280;38141;42.666;23.344;2023-03-03T07:03:42;94646.16;;;5.94;100.00
3178;BME280;38141;42.666;23.344;2023-03-03T07:06:17;94650.25;;;5.88;100.00
3178;BME280;38141;42.666;23.344;2023-03-03T07:08:49;94648.97;;;6.01;100.00
3178;BME280;38141;42.666;23.344;2023-03-03T07:11:18;94651.59;;;5.97;100.00
3178;BME280;38141;42.666;23.344;2023-03-03T07:13:47;94617.78;;;5.77;100.00
3178;BME280;38141;42.666;23.344;2023-03-03T07:16:18;94648.19;;;6.00;100.00
3178;BME280;38141;42.666;23.344;2023-03-03T07:18:48;94629.41;;;6.00;100.00
3178;BME280;38141;42.666;23.344;2023-03-03T07:21:19;94645.94;;;6.02;100.00
3178;BME280;38141;42.666;23.344;2023-03-03T07:23:47;94622.91;;;6.01;100.00
3178;BME280;38141;42.666;23.344;2023-03-03T07:26:16;94650.75;;;5.93;100.00
3178;BME280;38141;42.666;23.344;2023-03-03T07:28:51;94625.44;;;5.75;100.00
3178;BME280;38141;42.666;23.344;2023-03-03T07:31:28;94632.75;;;5.59;100.00
3178;BME280;38141;42.666;23.344;2023-03-03T07:33:56;94643.50;;;5.78;100.00
3178;BME280;38141;42.666;23.344;2023-03-03T07:36:27;94626.13;;;5.53;100.00
3178;BME280;38141;42.666;23.344;2023-03-03T07:38:56;94642.00;;;5.61;100.00
3178;BME280;38141;42.666;23.344;2023-03-03T07:41:24;94639.75;;;5.63;100.00
3178;BME280;38141;42.666;23.344;2023-03-03T07:43:52;94643.00;;;5.72;100.00
3178;BME280;38141;42.666;23.344;2023-03-03T07:46:24;94633.13;;;5.96;100.00
3178;BME280;38141;42.666;23.344;2023-03-03T07:48:55;94634.84;;;6.04;100.00
3178;BME280;38141;42.666;23.344;2023-03-03T07:51:25;94636.16;;;6.13;100.00
3178;BME280;38141;42.666;23.344;2023-03-03T07:53:55;94642.66;;;6.32;100.00
3178;BME280;38141;42.666;23.344;2023-03-03T07:56:28;94636.41;;;6.47;100.00
3178;BME280;38141;42.666;23.344;2023-03-03T07:58:56;94635.69;;;6.50;100.00
3178;BME280;38141;42.666;23.344;2023-03-03T08:01:34;94619.34;;;6.36;100.00
3178;BME280;38141;42.666;23.344;2023-03-03T08:04:11;94611.13;;;6.29;100.00
3178;BME280;38141;42.666;23.344;2023-03-03T08:06:46;94614.88;;;6.24;100.00
3178;BME280;38141;42.666;23.344;2023-03-03T08:09:41;94629.00;;;6.40;100.00
3178;BME280;38141;42.666;23.344;2023-03-03T08:12:30;94629.75;;;6.41;100.00
3178;BME280;38141;42.666;23.344;2023-03-03T08:15:14;94631.31;;;6.00;100.00
3178;BME280;38141;42.666;23.344;2023-03-03T08:17:43;94607.91;;;5.81;100.00
3178;BME280;38141;42.666;23.344;2023-03-03T08:23:15;94631.16;;;6.31;100.00
3178;BME280;38141;42.666;23.344;2023-03-03T08:25:43;94601.34;;;6.17;100.00
3178;BME280;38141;42.666;23.344;2023-03-03T08:28:10;94622.44;;;6.18;100.00
3178;BME280;38141;42.666;23.344;2023-03-03T08:30:38;94626.72;;;6.42;100.00
3178;BME280;38141;42.666;23.344;2023-03-03T08:33:05;94586.75;;;6.18;100.00
3178;BME280;38141;42.666;23.344;2023-03-03T08:35:33;94621.69;;;6.41;100.00
3178;BME280;38141;42.666;23.344;2023-03-03T08:38:01;94620.56;;;6.42;100.00
3178;BME280;38141;42.666;23.344;2023-03-03T08:40:29;94534.31;;;6.01;100.00
3178;BME280;38141;42.666;23.344;2023-03-03T08:42:56;94613.44;;;6.49;100.00
3178;BME280;38141;42.666;23.344;2023-03-03T08:45:24;94625.63;;;6.24;100.00
3178;BME280;38141;42.666;23.344;2023-03-03T08:47:51;94619.00;;;6.41;100.00
3178;BME280;38141;42.666;23.344;2023-03-03T08:50:18;94621.00;;;6.44;100.00
3178;BME280;38141;42.666;23.344;2023-03-03T08:52:46;94627.75;;;6.57;100.00
3178;BME280;38141;42.666;23.344;2023-03-03T08:55:13;94607.50;;;6.40;100.00
3178;BME280;38141;42.666;23.344;2023-03-03T08:57:41;94623.28;;;6.64;100.00
3178;BME280;38141;42.666;23.344;2023-03-03T09:00:10;94618.81;;;6.72;100.00
3178;BME280;38141;42.666;23.344;2023-03-03T09:02:37;94620.41;;;6.77;100.00
3178;BME280;38141;42.666;23.344;2023-03-03T09:05:05;94608.34;;;6.67;100.00
3178;BME280;38141;42.666;23.344;2023-03-03T09:07:38;94633.66;;;6.89;100.00
3178;BME280;38141;42.666;23.344;2023-03-03T09:10:06;94596.09;;;6.69;100.00
3178;BME280;38141;42.666;23.344;2023-03-03T09:12:35;94601.53;;;6.50;100.00
3178;BME280;38141;42.666;23.344;2023-03-03T09:15:14;94607.97;;;6.68;100.00
3178;BME280;38141;42.666;23.344;2023-03-03T09:17:42;94585.50;;;6.54;100.00
3178;BME280;38141;42.666;23.344;2023-03-03T09:20:23;94626.94;;;6.76;100.00
3178;BME280;38141;42.666;23.344;2023-03-03T09:22:53;94617.50;;;7.11;100.00
3178;BME280;38141;42.666;23.344;2023-03-03T09:25:22;94613.47;;;7.25;100.00
3178;BME280;38141;42.666;23.344;2023-03-03T09:27:52;94570.91;;;6.55;100.00
3178;BME280;38141;42.666;23.344;2023-03-03T09:30:35;94616.69;;;7.07;100.00
3178;BME280;38141;42.666;23.344;2023-03-03T09:33:23;94620.59;;;7.13;100.00
3178;BME280;38141;42.666;23.344;2023-03-03T09:35:51;94618.53;;;7.30;100.00
3178;BME280;38141;42.666;23.344;2023-03-03T09:38:28;94598.31;;;7.13;100.00
3178;BME280;38141;42.666;23.344;2023-03-03T09:41:10;94624.38;;;7.35;100.00
3178;BME280;38141;42.666;23.344;2023-03-03T09:43:50;94598.97;;;7.06;100.00
3178;BME280;38141;42.666;23.344;2023-03-03T09:46:28;94562.56;;;7.12;100.00
3178;BME280;38141;42.666;23.344;2023-03-03T09:49:10;94573.03;;;7.47;100.00
3178;BME280;38141;42.666;23.344;2023-03-03T09:51:56;94618.28;;;7.68;100.00
3178;BME280;38141;42.666;23.344;2023-03-03T09:54:44;94537.53;;;7.08;100.00
3178;BME280;38141;42.666;23.344;2023-03-03T09:57:16;94618.31;;;8.01;100.00
3178;BME280;38141;42.666;23.344;2023-03-03T10:00:03;94588.41;;;8.14;100.00
3178;BME280;38141;42.666;23.344;2023-03-03T10:02:46;94576.94;;;8.17;100.00
3178;BME280;38141;42.666;23.344;2023-03-03T10:05:27;94609.63;;;8.52;100.00
3178;BME280;38141;42.666;23.344;2023-03-03T10:08:09;94591.84;;;8.44;100.00
3178;BME280;38141;42.666;23.344;2023-03-03T10:10:47;94606.66;;;8.64;100.00
3178;BME280;38141;42.666;23.344;2023-03-03T10:13:39;94608.72;;;8.78;100.00
3178;BME280;38141;42.666;23.344;2023-03-03T10:16:43;94607.72;;;9.00;100.00
3178;BME280;38141;42.666;23.344;2023-03-03T10:19:29;94604.91;;;8.82;100.00
3178;BME280;38141;42.666;23.344;2023-03-03T10:22:05;94599.53;;;8.86;100.00
3178;BME280;38141;42.666;23.344;2023-03-03T10:24:43;94600.75;;;8.96;100.00
3178;BME280;38141;42.666;23.344;2023-03-03T10:27:26;94589.59;;;8.93;100.00
3178;BME280;38141;42.666;23.344;2023-03-03T10:30:02;94578.34;;;8.84;100.00
3178;BME280;38141;42.666;23.344;2023-03-03T10:32:39;94585.03;;;9.05;100.00
3178;BME280;38141;42.666;23.344;2023-03-03T10:35:24;94564.78;;;8.77;100.00
3178;BME280;38141;42.666;23.344;2023-03-03T10:38:11;94586.88;;;8.93;100.00
3178;BME280;38141;42.666;23.344;2023-03-03T10:40:44;94581.75;;;8.78;100.00
3178;BME280;38141;42.666;23.344;2023-03-03T10:46:33;94589.06;;;8.77;100.00
3178;BME280;38141;42.666;23.344;2023-03-03T10:49:26;94557.00;;;8.69;100.00
3178;BME280;38141;42.666;23.344;2023-03-03T10:52:18;94557.75;;;8.62;100.00
3178;BME280;38141;42.666;23.344;2023-03-03T10:55:26;94575.22;;;8.82;100.00
3178;BME280;38141;42.666;23.344;2023-03-03T10:58:06;94576.56;;;9.06;100.00
3178;BME280;38141;42.666;23.344;2023-03-03T11:00:42;94576.09;;;8.93;100.00
3178;BME280;38141;42.666;23.344;2023-03-03T11:03:50;94566.97;;;8.61;100.00
3178;BME280;38141;42.666;23.344;2023-03-03T11:06:23;94553.13;;;8.63;100.00
3178;BME280;38141;42.666;23.344;2023-03-03T11:08:54;94564.56;;;9.00;100.00
3178;BME280;38141;42.666;23.344;2023-03-03T11:11:33;94547.91;;;8.87;100.00
3178;BME280;38141;42.666;23.344;2023-03-03T11:14:05;94562.09;;;8.77;100.00
3178;BME280;38141;42.666;23.344;2023-03-03T11:16:44;94561.53;;;9.05;100.00
3178;BME280;38141;42.666;23.344;2023-03-03T11:19:39;94561.50;;;9.02;100.00
3178;BME280;38141;42.666;23.344;2023-03-03T11:22:20;94550.00;;;9.12;100.00
3178;BME280;38141;42.666;23.344;2023-03-03T11:25:00;94554.22;;;9.09;100.00
3178;BME280;38141;42.666;23.344;2023-03-03T11:27:46;94525.50;;;8.80;100.00
3178;BME280;38141;42.666;23.344;2023-03-03T11:30:28;94551.81;;;8.93;100.00
3178;BME280;38141;42.666;23.344;2023-03-03T11:33:02;94548.78;;;8.99;100.00
3178;BME280;38141;42.666;23.344;2023-03-03T11:35:35;94552.97;;;8.96;100.00
3178;BME280;38141;42.666;23.344;2023-03-03T11:38:38;94553.75;;;8.93;100.00
3178;BME280;38141;42.666;23.344;2023-03-03T11:41:19;94537.41;;;8.72;100.00
3178;BME280;38141;42.666;23.344;2023-03-03T11:43:52;94533.50;;;8.66;100.00
3178;BME280;38141;42.666;23.344;2023-03-03T11:46:25;94536.50;;;8.54;100.00
3178;BME280;38141;42.666;23.344;2023-03-03T11:48:58;94540.84;;;8.69;100.00
3178;BME280;38141;42.666;23.344;2023-03-03T11:51:34;94549.41;;;8.34;100.00
3178;BME280;38141;42.666;23.344;2023-03-03T11:54:08;94543.16;;;8.26;100.00
3178;BME280;38141;42.666;23.344;2023-03-03T11:56:41;94525.34;;;8.18;100.00
3178;BME280;38141;42.666;23.344;2023-03-03T11:59:36;94545.00;;;8.22;100.00
3178;BME280;38141;42.666;23.344;2023-03-03T12:02:22;94521.94;;;8.21;100.00
3178;BME280;38141;42.666;23.344;2023-03-03T12:04:55;94528.59;;;8.31;100.00
3178;BME280;38141;42.666;23.344;2023-03-03T12:07:30;94518.91;;;8.26;100.00
3178;BME280;38141;42.666;23.344;2023-03-03T12:10:08;94528.03;;;8.59;100.00
3178;BME280;38141;42.666;23.344;2023-03-03T12:12:42;94509.78;;;8.38;100.00
3178;BME280;38141;42.666;23.344;2023-03-03T12:15:21;94537.16;;;8.43;100.00
3178;BME280;38141;42.666;23.344;2023-03-03T12:18:08;94537.56;;;8.45;100.00
3178;BME280;38141;42.666;23.344;2023-03-03T12:20:46;94532.47;;;8.37;100.00
3178;BME280;38141;42.666;23.344;2023-03-03T12:23:30;94534.66;;;8.28;100.00
3178;BME280;38141;42.666;23.344;2023-03-03T12:26:04;94538.31;;;8.42;100.00
3178;BME280;38141;42.666;23.344;2023-03-03T12:28:41;94518.22;;;7.99;100.00
3178;BME280;38141;42.666;23.344;2023-03-03T12:31:20;94534.44;;;8.40;100.00
3178;BME280;38141;42.666;23.344;2023-03-03T12:33:54;94539.81;;;8.84;100.00
3178;BME280;38141;42.666;23.344;2023-03-03T12:36:51;94540.59;;;8.40;100.00
3178;BME280;38141;42.666;23.344;2023-03-03T12:39:34;94546.81;;;8.08;100.00
3178;BME280;38141;42.666;23.344;2023-03-03T12:42:11;94546.34;;;8.35;100.00
3178;BME280;38141;42.666;23.344;2023-03-03T12:44:45;94534.19;;;8.56;100.00
3178;BME280;38141;42.666;23.344;2023-03-03T12:47:15;94527.56;;;8.49;100.00
3178;BME280;38141;42.666;23.344;2023-03-03T12:49:58;94539.88;;;8.47;100.00
3178;BME280;38141;42.666;23.344;2023-03-03T12:52:33;94539.84;;;8.40;100.00
3178;BME280;38141;42.666;23.344;2023-03-03T12:55:10;94512.16;;;8.46;100.00
3178;BME280;38141;42.666;23.344;2023-03-03T12:57:49;94540.06;;;8.68;100.00
3178;BME280;38141;42.666;23.344;2023-03-03T13:00:27;94539.66;;;8.63;100.00
3178;BME280;38141;42.666;23.344;2023-03-03T13:03:08;94533.13;;;8.67;100.00
3178;BME280;38141;42.666;23.344;2023-03-03T13:05:45;94534.63;;;8.65;100.00
3178;BME280;38141;42.666;23.344;2023-03-03T13:08:28;94531.19;;;8.68;100.00
3178;BME280;38141;42.666;23.344;2023-03-03T13:11:03;94532.75;;;8.69;100.00
3178;BME280;38141;42.666;23.344;2023-03-03T13:13:37;94509.16;;;8.59;100.00
3178;BME280;38141;42.666;23.344;2023-03-03T13:16:10;94532.88;;;8.86;100.00
3178;BME280;38141;42.666;23.344;2023-03-03T13:18:48;94531.75;;;8.91;100.00
3178;BME280;38141;42.666;23.344;2023-03-03T13:21:20;94527.44;;;8.83;100.00
3178;BME280;38141;42.666;23.344;2023-03-03T13:23:52;94518.34;;;9.05;100.00
3178;BME280;38141;42.666;23.344;2023-03-03T13:26:25;94527.88;;;8.88;100.00
3178;BME280;38141;42.666;23.344;2023-03-03T13:29:08;94492.38;;;8.83;100.00
3178;BME280;38141;42.666;23.344;2023-03-03T13:31:44;94518.50;;;9.26;100.00
3178;BME280;38141;42.666;23.344;2023-03-03T13:34:22;94511.56;;;9.36;100.00